METAR Data
IDs: Format: Raw Decoded Include TAF

Data at: 1336 UTC 10 Aug 2022

KMCE 101253Z AUTO 32006KT 10SM CLR 17/13 A3000 RMK AO2 SLP158 T01670128
KMCE 101153Z AUTO 33009KT 10SM CLR 18/13 A2999 RMK AO2 SLP153 T01780128 10228 20178 51006
KMCE 101053Z AUTO 33009KT 10SM CLR 18/12 A2998 RMK AO2 SLP151 T01830122
KMCE 100953Z AUTO 33009KT 10SM CLR 19/12 A2998 RMK AO2 SLP149 T01890122
KMCE 100853Z AUTO 33010KT 10SM CLR 19/13 A2997 RMK AO2 SLP147 T01940128 51007
KMCE 100753Z AUTO 33011KT 10SM CLR 21/13 A2997 RMK AO2 SLP147 T02060128 403440183
KMCE 100653Z AUTO 33012KT 10SM CLR 22/13 A2996 RMK AO2 SLP143 T02170133
KMCE 100553Z AUTO 33010KT 10SM CLR 23/13 A2995 RMK AO2 SLP139 T02280128 10339 20228 53020
KMCE 100453Z AUTO 33013KT 10SM CLR 25/12 A2993 RMK AO2 SLP134 T02500122
KMCE 100353Z AUTO 33010KT 10SM CLR 28/13 A2990 RMK AO2 SLP124 T02780128
KMCE 100253Z AUTO 33008KT 10SM CLR 29/13 A2989 RMK AO2 SLP119 T02940133 53006
KMCE 100153Z AUTO 33008KT 10SM CLR 31/13 A2987 RMK AO2 SLP113 T03110128
KMCE 100053Z AUTO 33011KT 10SM CLR 33/12 A2986 RMK AO2 SLP112 T03330122
KMCE 092353Z AUTO 33007G14KT 10SM CLR 33/12 A2987 RMK AO2 SLP112 T03330122 10344 20267 56014
KMCE 092253Z AUTO 33010KT 10SM CLR 34/11 A2988 RMK AO2 SLP115 T03390111
KMCE 092153Z AUTO 35010KT 10SM CLR 33/10 A2989 RMK AO2 SLP120 T03280100
KMCE 092053Z AUTO 31008KT 10SM CLR 32/09 A2991 RMK AO2 SLP126 T03170089 58011
KMCE 091953Z AUTO 34009KT 10SM CLR 31/12 A2993 RMK AO2 SLP132 T03060117
KMCE 091853Z AUTO 29007KT 10SM CLR 28/11 A2994 RMK AO2 SLP137 T02830111
KMCE 091753Z AUTO 32009KT 10SM CLR 27/12 A2994 RMK AO2 SLP138 T02670122 10267 20183 50004
KMCE 091653Z AUTO 35008KT 10SM CLR 25/12 A2995 RMK AO2 SLP139 T02500117
KMCE 091553Z AUTO 31008KT 10SM CLR 23/12 A2994 RMK AO2 SLP138 T02330122
KMCE 091453Z AUTO 32009KT 10SM CLR 21/12 A2993 RMK AO2 SLP135 T02110122 53012
KMCE 091353Z AUTO 33009KT 10SM CLR 19/12 A2991 RMK AO2 SLP129 T01940122
KMCE 091253Z AUTO 32007KT 10SM CLR 19/13 A2991 RMK AO2 SLP125 T01890128
KMCE 091153Z AUTO 32006KT 10SM CLR 19/12 A2990 RMK AO2 SLP122 T01940122 10244 20194 53003
KMCE 091053Z AUTO 33007KT 10SM CLR 20/12 A2989 RMK AO2 SLP118 T02000117
KMCE 090953Z AUTO 34007KT 10SM CLR 21/12 A2988 RMK AO2 SLP115 T02060122
KMCE 090853Z AUTO 34006KT 10SM CLR 22/13 A2989 RMK AO2 SLP119 T02170128 50000
KMCE 090753Z AUTO 33007KT 10SM CLR 22/13 A2990 RMK AO2 SLP123 T02220133 403500178
KMCE 090653Z AUTO 33008KT 10SM CLR 23/13 A2990 RMK AO2 SLP122 T02330128
KMCE 090553Z AUTO 33011KT 10SM CLR 24/11 A2989 RMK AO2 SLP119 T02440106 10344 20244 51010
KMCE 090453Z AUTO 33011KT 10SM CLR 26/11 A2988 RMK AO2 SLP118 T02610106
KMCE 090353Z AUTO 33011KT 10SM CLR 28/13 A2986 RMK AO2 SLP112 T02780133
KMCE 090253Z AUTO 33010KT 10SM CLR 30/12 A2985 RMK AO2 SLP109 T03000122 53002
KMCE 090153Z AUTO 34010KT 10SM CLR 32/12 A2984 RMK AO2 SLP105 T03220117